Time;durP1;ratioP1;P1;durP2;ratioP2;P2;SDS_P1;SDS_P2;PMS_P1;PMS_P2;Temp;Humidity;BMP_temperature;BMP_pressure;BME280_temperature;BME280_humidity;BME280_pressure;Samples;Min_cycle;Max_cycle;Signal;HPM_P1;HPM_P2
2022/10/04 00:00:28;;;;;;;0.10;0.10;;;6.30;99.90;;;6.35;100.00;101265.72;4880233;29;20240;-79
2022/10/04 00:03:21;;;;;;;0.10;0.10;;;6.20;99.90;;;6.45;100.00;101267.88;4872034;29;20209;-79
2022/10/04 00:05:56;;;;;;;0.20;0.20;;;6.30;99.90;;;6.43;100.00;101265.19;4874576;29;20232;-79
2022/10/04 00:09:04;;;;;;;0.30;0.30;;;6.40;99.90;;;6.43;100.00;101261.66;4874700;29;20198;-79
2022/10/04 00:11:36;;;;;;;0.10;0.10;;;6.40;99.90;;;6.39;100.00;101263.28;4867560;29;20219;-79
2022/10/04 00:14:17;;;;;;;0.52;0.52;;;6.40;99.90;;;6.49;100.00;101271.50;4853149;29;20213;-79
2022/10/04 00:16:45;;;;;;;0.10;0.10;;;6.40;99.90;;;6.60;100.00;101283.38;4880296;29;20232;-79
2022/10/04 00:19:13;;;;;;;0.25;0.25;;;6.50;99.90;;;6.52;100.00;101279.56;4861262;29;20208;-79
2022/10/04 00:21:55;;;;;;;0.30;0.30;;;6.50;99.90;;;6.58;100.00;101285.94;4870583;29;20237;-79
2022/10/04 00:24:29;;;;;;;0.10;0.10;;;6.50;99.90;;;6.59;100.00;101287.72;4882914;29;20219;-79
2022/10/04 00:27:37;;;;;;;0.43;0.43;;;6.50;99.90;;;6.58;100.00;101299.06;4879417;29;20212;-78
2022/10/04 00:30:05;;;;;;;0.20;0.20;;;6.50;99.90;;;6.57;100.00;101297.28;4823537;29;20222;-79
2022/10/04 00:32:39;;;;;;;0.10;0.10;;;6.50;99.90;;;6.56;100.00;101298.13;4837759;29;20715;-79
2022/10/04 00:35:27;;;;;;;0.22;0.22;;;6.50;99.90;;;6.41;100.00;101286.97;4859446;29;20622;-79
2022/10/04 00:38:13;;;;;;;0.10;0.10;;;6.40;99.90;;;6.26;100.00;101286.38;4872822;29;20212;-79
2022/10/04 00:40:53;;;;;;;0.10;0.10;;;6.30;99.90;;;6.27;100.00;101283.81;4879019;29;20232;-79
2022/10/04 00:43:46;;;;;;;0.10;0.10;;;6.30;99.90;;;6.21;100.00;101287.91;4874127;29;20217;-79
2022/10/04 00:46:22;;;;;;;0.20;0.20;;;6.10;99.90;;;6.22;100.00;101277.47;4860210;29;20244;-79
2022/10/04 00:49:03;;;;;;;0.40;0.40;;;6.20;99.90;;;6.25;100.00;101280.22;4869999;29;20204;-79
2022/10/04 00:51:51;;;;;;;0.50;0.50;;;6.20;99.90;;;6.14;100.00;101272.75;4863997;29;20208;-79
2022/10/04 00:54:25;;;;;;;0.10;0.10;;;6.20;99.90;;;6.23;100.00;101284.53;4890697;29;20319;-79
2022/10/04 00:57:03;;;;;;;0.10;0.10;;;6.20;99.90;;;6.09;100.00;101270.84;4882651;29;20220;-79
2022/10/04 00:59:38;;;;;;;0.20;0.20;;;6.10;99.90;;;6.04;100.00;101266.25;4853101;29;20213;-79
2022/10/04 01:02:33;;;;;;;0.40;0.40;;;6.10;99.90;;;6.00;100.00;101266.94;4877761;29;20232;-79
2022/10/04 01:05:19;;;;;;;0.30;0.30;;;6.00;99.90;;;5.86;100.00;101253.22;4875752;29;20236;-78
2022/10/04 01:07:54;;;;;;;0.10;0.10;;;5.90;99.90;;;5.76;100.00;101240.56;4875315;29;20212;-79
2022/10/04 01:10:29;;;;;;;1.75;1.38;;;5.80;99.90;;;5.69;100.00;101234.16;4877196;29;20207;-79
2022/10/04 01:13:13;;;;;;;0.10;0.10;;;5.70;99.90;;;5.69;100.00;101236.78;4862755;29;20244;-78
2022/10/04 01:15:48;;;;;;;0.15;0.15;;;5.70;99.90;;;5.76;100.00;101238.81;4873244;29;20236;-79
2022/10/04 01:18:30;;;;;;;0.30;0.30;;;5.60;99.90;;;5.70;100.00;101235.94;4870702;29;20204;-79
2022/10/04 01:21:18;;;;;;;0.10;0.10;;;5.70;99.90;;;5.74;100.00;101244.84;4884845;29;20232;-78
2022/10/04 01:23:49;;;;;;;0.20;0.20;;;5.70;99.90;;;5.89;100.00;101260.31;4866544;29;20214;-79
2022/10/04 01:26:28;;;;;;;0.10;0.10;;;5.80;99.90;;;6.06;100.00;101273.34;4879717;29;20236;-79
2022/10/04 01:29:14;;;;;;;0.20;0.20;;;5.90;99.90;;;6.02;100.00;101262.66;4860860;29;20225;-79
2022/10/04 01:31:48;;;;;;;0.10;0.10;;;6.00;99.90;;;5.92;100.00;101257.88;4872576;29;20215;-79
2022/10/04 01:34:22;;;;;;;0.20;0.20;;;5.90;99.90;;;6.06;100.00;101262.84;4872683;29;20228;-79
2022/10/04 01:36:54;;;;;;;0.10;0.10;;;6.00;99.90;;;6.05;100.00;101255.78;4869384;29;20228;-78
2022/10/04 01:39:25;;;;;;;0.40;0.40;;;6.00;99.90;;;6.00;100.00;101248.56;4878215;29;20220;-79
2022/10/04 01:42:17;;;;;;;0.20;0.20;;;6.00;99.90;;;5.93;100.00;101244.78;4874967;29;20235;-78
2022/10/04 01:45:22;;;;;;;0.20;0.20;;;5.90;99.90;;;5.89;100.00;101241.94;4861201;29;20256;-78
2022/10/04 01:48:01;;;;;;;0.13;0.13;;;5.80;99.90;;;5.90;100.00;101241.16;4864966;29;20226;-79
2022/10/04 01:50:36;;;;;;;0.13;0.13;;;5.80;99.90;;;6.03;100.00;101254.84;4870161;29;20213;-77
2022/10/04 01:53:28;;;;;;;0.10;0.10;;;5.90;99.90;;;6.08;100.00;101257.66;4871881;29;20215;-80
2022/10/04 01:56:15;;;;;;;0.57;0.57;;;5.90;99.90;;;6.03;100.00;101254.84;4882520;29;20228;-81
2022/10/04 01:58:51;;;;;;;1.10;0.73;;;6.00;99.90;;;5.97;100.00;101245.81;4877980;29;20231;-81
2022/10/04 02:01:29;;;;;;;0.75;0.75;;;5.90;99.90;;;5.99;100.00;101247.66;4878335;29;20233;-80
2022/10/04 02:04:04;;;;;;;0.20;0.20;;;6.00;99.90;;;5.93;100.00;101239.53;4878699;29;20232;-80
2022/10/04 02:06:39;;;;;;;0.10;0.10;;;5.90;99.90;;;5.85;100.00;101240.03;4873669;29;20232;-81
2022/10/04 02:09:23;;;;;;;0.20;0.20;;;5.90;99.90;;;5.85;100.00;101243.56;4873321;29;20217;-81
2022/10/04 02:11:53;;;;;;;0.17;0.17;;;5.80;99.90;;;5.93;100.00;101252.69;4868996;29;20610;-80
2022/10/04 02:14:31;;;;;;;0.20;0.20;;;5.90;99.90;;;5.92;100.00;101248.25;4874286;29;20217;-81
2022/10/04 02:17:09;;;;;;;0.13;0.13;;;5.90;99.90;;;6.01;100.00;101252.97;4886651;29;20213;-80
2022/10/04 02:19:41;;;;;;;0.30;0.30;;;5.90;99.90;;;6.01;100.00;101255.59;4871962;29;20208;-81
2022/10/04 02:22:10;;;;;;;0.10;0.10;;;6.00;99.90;;;6.05;100.00;101254.91;4878254;29;20318;-81
2022/10/04 02:24:43;;;;;;;0.22;0.22;;;6.00;99.90;;;5.99;100.00;101247.66;4877857;29;20209;-81
2022/10/04 02:27:12;;;;;;;0.20;0.20;;;6.00;99.90;;;6.04;100.00;101250.47;4879566;29;20219;-81
2022/10/04 02:29:41;;;;;;;0.15;0.15;;;6.00;99.90;;;6.03;100.00;101246.97;4875957;29;20231;-82
2022/10/04 02:34:57;;;;;;;0.10;0.10;;;6.00;99.90;;;6.02;100.00;101249.53;4868202;29;20241;-80
2022/10/04 02:37:27;;;;;;;0.28;0.28;;;6.00;99.90;;;5.88;100.00;101227.94;4881073;29;20200;-80
2022/10/04 02:40:11;;;;;;;0.20;0.20;;;5.90;99.90;;;5.89;100.00;101226.19;4882219;29;20212;-81
2022/10/04 02:42:50;;;;;;;0.20;0.20;;;5.90;99.90;;;5.94;100.00;101233.47;4877159;29;20244;-81
2022/10/04 02:45:39;;;;;;;1.00;0.57;;;5.90;99.90;;;6.03;100.00;101244.34;4847491;29;20232;-80
2022/10/04 02:48:47;;;;;;;0.20;0.20;;;6.00;99.90;;;6.02;100.00;101247.78;4877156;29;20216;-81
2022/10/04 02:51:25;;;;;;;0.40;0.40;;;6.00;99.90;;;5.95;100.00;101235.25;4890806;29;20208;-81
2022/10/04 02:53:59;;;;;;;0.10;0.10;;;5.90;99.90;;;5.93;100.00;101230.78;4897076;29;20208;-81
2022/10/04 02:56:31;;;;;;;0.20;0.20;;;5.90;99.90;;;5.89;100.00;101226.19;4887830;29;20243;-81
2022/10/04 02:59:02;;;;;;;0.20;0.20;;;5.90;99.90;;;5.86;100.00;101226.06;4878254;29;20229;-81
2022/10/04 03:01:56;;;;;;;0.20;0.20;;;5.80;99.90;;;5.79;100.00;101224.94;4876552;29;20228;-81
2022/10/04 03:04:33;;;;;;;0.20;0.20;;;5.80;99.90;;;5.79;100.00;101236.31;4881416;29;20220;-82
2022/10/04 03:07:04;;;;;;;0.20;0.20;;;5.80;99.90;;;5.79;100.00;101236.31;4877533;29;20205;-81
2022/10/04 03:09:35;;;;;;;0.40;0.40;;;5.80;99.90;;;5.69;100.00;101228.91;4882047;29;20208;-81
2022/10/04 03:12:05;;;;;;;0.20;0.20;;;5.70;99.90;;;5.69;100.00;101241.13;4873022;29;20217;-81
2022/10/04 03:14:33;;;;;;;0.20;0.20;;;5.70;99.90;;;5.67;100.00;101240.19;4878856;29;20212;-81
2022/10/04 03:17:04;;;;;;;0.13;0.13;;;5.70;99.90;;;5.64;100.00;101235.69;4880584;29;20205;-81
2022/10/04 03:19:34;;;;;;;0.35;0.35;;;5.70;99.90;;;5.65;100.00;101232.25;4877727;29;20213;-81
2022/10/04 03:22:11;;;;;;;0.20;0.20;;;5.70;99.90;;;5.51;100.00;101228.16;4880472;29;20244;-81
2022/10/04 03:24:49;;;;;;;0.25;0.25;;;5.60;99.90;;;5.41;100.00;101221.63;4881550;29;20212;-79
2022/10/04 03:27:28;;;;;;;0.20;0.20;;;5.50;99.90;;;5.47;100.00;101216.63;4867243;29;20212;-81
2022/10/04 03:29:58;;;;;;;0.10;0.10;;;5.50;99.90;;;5.52;100.00;101216.81;4881651;29;20220;-81
2022/10/04 03:32:29;;;;;;;0.20;0.20;;;5.50;99.90;;;5.31;100.00;101213.28;4884010;29;20231;-81
2022/10/04 03:35:01;;;;;;;0.32;0.32;;;5.40;99.90;;;5.34;100.00;101222.19;4866928;29;20253;-80
2022/10/04 03:37:34;;;;;;;0.20;0.20;;;5.40;99.90;;;5.39;100.00;101225.00;4881867;29;20217;-81
2022/10/04 03:40:08;;;;;;;0.10;0.10;;;5.40;99.90;;;5.35;100.00;101230.94;4881656;29;20224;-80
2022/10/04 03:42:37;;;;;;;0.10;0.10;;;5.40;99.90;;;5.23;100.00;101222.56;4884115;29;20243;-81
2022/10/04 03:45:15;;;;;;;0.20;0.20;;;5.30;99.90;;;5.29;100.00;101230.69;4894315;29;20232;-80
2022/10/04 03:47:49;;;;;;;0.20;0.20;;;5.30;99.90;;;5.38;100.00;101241.56;4856910;29;20213;-80
2022/10/04 03:50:25;;;;;;;0.10;0.10;;;5.30;99.90;;;5.43;100.00;101242.66;4875515;29;20216;-80
2022/10/04 03:53:03;;;;;;;0.20;0.20;;;5.40;99.90;;;5.41;100.00;101250.47;4890616;29;20224;-81
2022/10/04 03:55:39;;;;;;;0.20;0.20;;;5.40;99.90;;;5.45;100.00;101254.13;4861645;29;20229;-80
2022/10/04 03:58:16;;;;;;;0.20;0.20;;;5.40;99.90;;;5.49;100.00;101261.28;4868318;29;20223;-81
2022/10/04 04:01:15;;;;;;;0.10;0.10;;;5.50;99.90;;;5.57;100.00;101278.25;4870491;29;20212;-80
2022/10/04 04:04:10;;;;;;;0.20;0.20;;;5.50;99.90;;;5.46;100.00;101267.31;4881108;29;20247;-80
2022/10/04 04:07:31;;;;;;;0.45;0.45;;;5.50;99.90;;;5.65;100.00;101279.47;4881900;29;20233;-80
2022/10/04 04:10:15;;;;;;;0.10;0.10;;;5.50;99.90;;;5.72;100.00;101288.50;4853124;29;20217;-80
2022/10/04 04:12:59;;;;;;;0.20;0.20;;;5.70;99.90;;;5.65;100.00;101284.72;4869557;29;20216;-81
2022/10/04 04:15:31;;;;;;;0.10;0.10;;;5.70;99.90;;;5.52;100.00;101273.66;4886665;29;20240;-80
2022/10/04 04:18:12;;;;;;;0.20;0.20;;;5.60;99.90;;;5.64;100.00;101292.53;4876853;29;20221;-81
2022/10/04 04:20:42;;;;;;;0.20;0.20;;;5.60;99.90;;;5.64;100.00;101295.16;4879446;29;20216;-80
2022/10/04 04:23:13;;;;;;;0.20;0.20;;;5.60;99.90;;;5.68;100.00;101297.97;4886450;29;20251;-82
2022/10/04 04:26:18;;;;;;;0.10;0.10;;;5.70;99.90;;;5.62;100.00;101295.09;4881052;29;20242;-83
2022/10/04 04:28:51;;;;;;;0.10;0.10;;;5.70;99.90;;;5.61;100.00;101302.91;4850057;29;20217;-82
2022/10/04 04:31:36;;;;;;;0.10;0.10;;;5.60;99.90;;;5.53;100.00;101299.06;4866703;29;20213;-85
2022/10/04 04:34:19;;;;;;;0.20;0.20;;;5.50;99.90;;;5.87;100.00;101331.16;4878531;29;20217;-82
2022/10/04 04:36:48;;;;;;;0.30;0.30;;;5.70;99.90;;;5.86;100.00;101328.44;4866683;29;20601;-83
2022/10/04 04:39:38;;;;;;;0.65;0.65;;;5.80;99.90;;;5.66;100.00;101310.13;4872894;29;20216;-83
2022/10/04 04:42:16;;;;;;;0.73;0.73;;;5.70;99.90;;;5.64;100.00;101303.94;4871738;29;20213;-83
2022/10/04 04:45:00;;;;;;;0.80;0.45;;;5.70;99.90;;;5.67;100.00;101311.94;4865858;29;20228;-81
2022/10/04 04:47:34;;;;;;;0.10;0.10;;;5.70;99.90;;;5.66;100.00;101299.63;4871589;29;20208;-78
2022/10/04 04:50:14;;;;;;;0.20;0.20;;;5.70;99.90;;;5.63;100.00;101302.13;4880894;29;20207;-78
2022/10/04 04:53:21;;;;;;;0.10;0.10;;;5.70;99.90;;;5.73;100.00;101312.19;4882557;29;20224;-79
2022/10/04 04:56:05;;;;;;;0.10;0.10;;;5.70;99.90;;;5.79;100.00;101328.19;4868103;29;20227;-79
2022/10/04 04:58:43;;;;;;;0.17;0.17;;;5.70;99.90;;;5.89;100.00;101342.63;4877252;29;20213;-80
2022/10/04 05:01:33;;;;;;;0.40;0.40;;;5.90;99.90;;;5.97;100.00;101345.59;4863390;29;20221;-82
2022/10/04 05:04:07;;;;;;;0.15;0.15;;;6.00;99.90;;;6.00;100.00;101356.22;4876251;29;20233;-83
2022/10/04 05:06:38;;;;;;;0.32;0.32;;;6.00;99.90;;;5.90;100.00;101352.31;4885227;29;20232;-79
2022/10/04 05:09:21;;;;;;;0.10;0.10;;;6.00;99.90;;;6.19;100.00;101366.66;4883885;29;20217;-80
2022/10/04 05:11:52;;;;;;;0.35;0.35;;;6.10;99.90;;;6.18;100.00;101361.34;4871346;29;20204;-80
2022/10/04 05:14:20;;;;;;;0.10;0.10;;;6.20;99.90;;;6.03;100.00;101359.88;4881336;29;20295;-80
2022/10/04 05:16:52;;;;;;;0.20;0.20;;;6.10;99.90;;;6.03;100.00;101365.13;4867786;29;20258;-80
2022/10/04 05:19:34;;;;;;;0.17;0.17;;;6.10;99.90;;;5.92;100.00;101349.75;4883446;29;20220;-80
2022/10/04 05:22:10;;;;;;;0.20;0.20;;;6.00;99.90;;;5.92;100.00;101357.63;4881378;29;20219;-80
2022/10/04 05:24:45;;;;;;;0.20;0.20;;;5.90;99.90;;;5.92;100.00;101355.00;4875304;29;20232;-80
2022/10/04 05:27:15;;;;;;;0.10;0.10;;;5.90;99.90;;;5.94;100.00;101354.22;4875525;29;20426;-80
2022/10/04 05:30:11;;;;;;;0.20;0.20;;;5.90;99.90;;;5.93;100.00;101347.19;4875758;29;20207;-83
2022/10/04 05:33:13;;;;;;;0.30;0.30;;;5.90;99.90;;;5.95;100.00;101347.25;4858436;29;20206;-85
2022/10/04 05:36:08;;;;;;;0.20;0.20;;;5.90;99.90;;;5.91;100.00;101338.34;4881536;29;20242;-82
2022/10/04 05:38:47;;;;;;;0.20;0.20;;;5.90;99.90;;;5.93;100.00;101341.03;4877040;29;20223;-83
2022/10/04 05:42:13;;;;;;;0.40;0.40;;;5.90;99.90;;;5.93;100.00;101347.19;4884822;29;20241;-83
2022/10/04 05:44:56;;;;;;;0.20;0.20;;;5.90;99.90;;;5.87;100.00;101344.28;4863344;29;20233;-82
2022/10/04 05:47:28;;;;;;;0.10;0.10;;;5.90;99.90;;;5.81;100.00;101335.25;4871770;29;20230;-84
2022/10/04 05:49:58;;;;;;;0.20;0.20;;;5.80;99.90;;;5.85;100.00;101342.41;4866574;29;20215;-82
2022/10/04 05:52:39;;;;;;;0.10;0.10;;;5.90;99.90;;;5.91;100.00;101345.31;4870877;29;20217;-82
2022/10/04 05:55:45;;;;;;;0.10;0.10;;;5.90;99.90;;;5.94;100.00;101353.34;4857642;29;20227;-84
2022/10/04 05:58:32;;;;;;;0.20;0.20;;;5.90;99.90;;;5.97;100.00;101353.47;4875539;29;20208;-80
2022/10/04 06:01:44;;;;;;;0.10;0.10;;;6.00;99.90;;;6.03;100.00;101373.00;4878984;29;20217;-82
2022/10/04 06:04:49;;;;;;;0.20;0.20;;;6.00;99.90;;;6.04;100.00;101371.28;4881189;29;20232;-87
2022/10/04 06:07:42;;;;;;;0.10;0.10;;;6.00;99.90;;;6.02;100.00;101365.06;4870200;29;20217;-82
2022/10/04 06:10:50;;;;;;;0.20;0.20;;;6.00;99.90;;;6.12;100.00;101366.34;4875653;29;20221;-82
2022/10/04 06:13:31;;;;;;;0.10;0.10;;;6.10;99.90;;;6.11;100.00;101373.31;4878069;29;20216;-84
2022/10/04 06:16:48;;;;;;;0.10;0.10;;;6.10;99.90;;;6.14;100.00;101385.69;4879278;29;20243;-82
2022/10/04 06:19:40;;;;;;;0.10;0.10;;;6.10;99.90;;;6.17;100.00;101396.31;4880488;29;20212;-82
2022/10/04 06:22:25;;;;;;;0.20;0.20;;;6.10;99.90;;;6.23;100.00;101412.34;4876141;29;20212;-82
2022/10/04 06:25:04;;;;;;;0.20;0.20;;;6.20;99.90;;;6.21;100.00;101401.75;4869756;29;20728;-83
2022/10/04 06:27:57;;;;;;;0.40;0.40;;;6.20;99.90;;;6.25;100.00;101405.41;4878482;29;20208;-82
2022/10/04 06:30:26;;;;;;;0.20;0.20;;;6.20;99.90;;;6.30;100.00;101410.03;4877441;29;20225;-82
2022/10/04 06:33:37;;;;;;;0.20;0.20;;;6.30;99.90;;;6.39;100.00;101413.03;4872067;29;20204;-82
2022/10/04 06:36:26;;;;;;;0.20;0.20;;;6.40;99.90;;;6.45;100.00;101425.53;4881562;29;20752;-79
2022/10/04 06:39:26;;;;;;;0.10;0.10;;;6.40;99.90;;;6.64;100.00;101437.72;4878345;29;20715;-80
2022/10/04 06:42:42;;;;;;;0.65;0.65;;;6.60;99.90;;;6.70;100.00;101430.97;4873459;29;20654;-83
2022/10/04 06:45:28;;;;;;;0.63;0.63;;;6.70;99.90;;;6.72;100.00;101437.19;4890132;29;20245;-81
2022/10/04 06:48:20;;;;;;;0.10;0.10;;;6.70;99.90;;;6.79;100.00;101445.34;4891235;29;20250;-81
2022/10/04 06:51:11;;;;;;;0.10;0.10;;;6.70;99.90;;;6.76;100.00;101447.84;4893349;29;20205;-80
2022/10/04 06:54:30;;;;;;;0.20;0.20;;;6.80;99.90;;;6.83;100.00;101448.16;4869810;29;20205;-81
2022/10/04 06:57:42;;;;;;;0.10;0.10;;;6.80;99.90;;;6.94;100.00;101461.72;4877755;29;20217;-81
2022/10/04 07:00:21;;;;;;;0.20;0.20;;;6.90;99.90;;;7.02;100.00;101470.81;4877583;29;20212;-81
2022/10/04 07:03:07;;;;;;;0.10;0.10;;;7.00;99.90;;;7.13;100.00;101476.50;4883114;29;20215;-81
2022/10/04 07:05:54;;;;;;;0.10;0.10;;;7.10;99.90;;;7.11;100.00;101475.53;4856454;29;20233;-80
2022/10/04 07:08:35;;;;;;;0.57;0.57;;;7.10;99.90;;;7.16;100.00;101476.63;4885410;29;20572;-81
2022/10/04 07:11:31;;;;;;;0.10;0.10;;;7.20;99.90;;;7.26;100.00;101482.31;4889102;29;20216;-82
2022/10/04 07:14:02;;;;;;;0.47;0.47;;;7.20;99.90;;;7.27;100.00;101486.72;4876961;29;20219;-82
2022/10/04 07:16:52;;;;;;;0.10;0.10;;;7.30;99.90;;;7.37;100.00;101504.66;4884076;29;20236;-81
2022/10/04 07:19:39;;;;;;;0.35;0.35;;;7.30;99.90;;;7.50;100.00;101513.03;4888690;29;20216;-81
2022/10/04 07:22:09;;;;;;;0.22;0.22;;;7.40;99.90;;;7.64;100.00;101525.00;4891385;29;20212;-86
2022/10/04 07:25:17;;;;;;;0.20;0.20;;;7.60;99.90;;;7.67;100.00;101527.75;4877835;29;20237;-82
2022/10/04 07:31:12;;;;;;;0.17;0.17;;;7.70;99.90;;;7.89;100.00;101540.00;4872076;29;20204;-85
2022/10/04 07:33:52;;;;;;;0.20;0.20;;;7.80;99.90;;;7.95;100.00;101537.59;4873799;29;20216;-81
2022/10/04 07:36:59;;;;;;;0.20;0.20;;;7.90;99.90;;;7.96;100.00;101535.03;4877783;29;20247;-82
2022/10/04 07:39:40;;;;;;;0.10;0.10;;;7.90;99.90;;;7.99;100.00;101532.50;4878602;29;20208;-87
2022/10/04 07:42:51;;;;;;;0.10;0.10;;;8.00;99.90;;;8.09;100.00;101538.13;4879781;29;20212;-81
2022/10/04 07:45:33;;;;;;;0.10;0.10;;;8.10;99.90;;;8.13;100.00;101538.28;4865510;29;20244;-80
2022/10/04 07:48:21;;;;;;;0.50;0.50;;;8.10;99.90;;;8.24;100.00;101547.47;4890623;29;20223;-81
2022/10/04 07:51:16;;;;;;;0.00;0.00;;;8.20;99.90;;;8.31;100.00;101560.03;4890697;29;20204;-82
2022/10/04 07:54:09;;;;;;;0.22;0.22;;;8.30;99.90;;;8.41;100.00;101557.75;4862228;29;20212;-81
2022/10/04 07:56:47;;;;;;;0.10;0.10;;;8.40;99.90;;;8.57;100.00;101562.72;4885284;29;20232;-81
2022/10/04 07:59:43;;;;;;;0.10;0.10;;;8.50;99.90;;;8.64;100.00;101564.72;4877835;29;20231;-83
2022/10/04 08:02:59;;;;;;;3.00;1.45;;;8.60;99.90;;;8.79;100.00;101577.56;4885329;29;20228;-84
2022/10/04 08:06:11;;;;;;;0.08;0.08;;;8.70;99.90;;;8.88;100.00;101573.47;4876957;29;20238;-82
2022/10/04 08:09:01;;;;;;;0.00;0.00;;;8.80;99.90;;;9.00;100.00;101573.00;4881764;29;20214;-82
2022/10/04 08:11:50;;;;;;;0.30;0.30;;;9.00;99.90;;;9.15;100.00;101581.47;4871323;29;20582;-82
2022/10/04 08:14:43;;;;;;;0.10;0.10;;;9.10;99.90;;;9.38;100.00;101582.22;4885449;29;20219;-83
2022/10/04 08:17:13;;;;;;;0.13;0.13;;;9.30;99.90;;;9.44;100.00;101573.59;4895884;29;20215;-83
2022/10/04 08:20:22;;;;;;;0.25;0.25;;;9.40;99.90;;;9.58;100.00;101578.44;4879783;29;20212;-83
2022/10/04 08:23:37;;;;;;;0.10;0.10;;;9.50;99.90;;;9.66;100.00;101564.59;4872341;29;20208;-83
2022/10/04 08:26:52;;;;;;;0.20;0.20;;;9.60;99.90;;;9.88;100.00;101569.66;4875529;29;20262;-83
2022/10/04 08:29:42;;;;;;;0.10;0.10;;;9.80;99.90;;;9.95;100.00;101564.59;4882531;29;20217;-82
2022/10/04 08:32:22;;;;;;;0.10;0.10;;;9.90;99.90;;;10.03;100.00;101558.66;4879400;29;20614;-82
2022/10/04 08:35:28;;;;;;;0.00;0.00;;;10.00;99.90;;;9.93;100.00;101531.94;4892826;29;20251;-83
2022/10/04 08:38:31;;;;;;;0.00;0.00;;;10.00;99.90;;;9.99;100.00;101525.06;4887430;29;20212;-84
2022/10/04 08:41:49;;;;;;;3.92;1.17;;;10.00;99.90;;;10.03;100.00;101513.72;4874881;29;20217;-83
2022/10/04 08:44:26;;;;;;;0.20;0.20;;;10.10;99.90;;;10.21;100.00;101508.97;4875357;29;20225;-83
2022/10/04 08:48:07;;;;;;;0.10;0.10;;;10.10;99.90;;;10.32;100.00;101504.88;4879950;29;20203;-83
2022/10/04 08:51:27;;;;;;;0.10;0.10;;;10.30;99.90;;;10.36;100.00;101504.09;4832225;29;20221;-82
2022/10/04 08:54:39;;;;;;;0.10;0.10;;;10.30;99.90;;;10.34;100.00;101484.66;4886109;29;20578;-83
2022/10/04 08:57:10;;;;;;;0.35;0.35;;;10.30;99.90;;;10.49;100.00;101482.47;4881718;29;20223;-82
2022/10/04 09:00:18;;;;;;;0.85;0.85;;;10.40;99.90;;;10.53;100.00;101481.69;4887618;29;20207;-82
2022/10/04 09:03:35;;;;;;;0.05;0.05;;;10.50;99.90;;;10.62;100.00;101467.78;4865240;29;20217;-81
2022/10/04 09:06:55;;;;;;;0.00;0.00;;;10.60;99.90;;;10.55;100.00;101464.09;4831023;29;20248;-83
2022/10/04 09:10:00;;;;;;;0.00;0.00;;;10.50;99.90;;;10.75;100.00;101466.34;4862080;29;20212;-82
2022/10/04 09:13:00;;;;;;;0.47;0.25;;;10.70;99.90;;;10.79;100.00;101455.88;4870388;29;20228;-83
2022/10/04 09:15:39;;;;;;;0.00;0.00;;;10.80;99.90;;;10.82;100.00;101441.81;4873476;29;20236;-82
2022/10/04 09:18:49;;;;;;;0.10;0.10;;;10.70;99.90;;;11.02;100.00;101442.28;4887662;29;20248;-83
2022/10/04 09:21:27;;;;;;;0.25;0.25;;;10.90;99.90;;;10.86;100.00;101425.16;4875070;29;20216;-83
2022/10/04 09:24:28;;;;;;;0.15;0.15;;;10.90;99.90;;;11.10;100.00;101446.91;4872449;29;20213;-82
2022/10/04 09:27:22;;;;;;;0.28;0.28;;;11.00;99.90;;;11.17;100.00;101426.75;4877518;29;20216;-83
2022/10/04 09:30:23;;;;;;;0.10;0.10;;;11.10;99.90;;;11.37;100.00;101428.09;4864405;29;20220;-84
2022/10/04 09:33:25;;;;;;;0.10;0.10;;;11.30;99.90;;;11.51;100.00;101444.28;4863827;29;20212;-83
2022/10/04 09:36:39;;;;;;;0.20;0.20;;;11.40;99.90;;;11.51;100.00;101423.97;4872222;29;20240;-83
2022/10/04 09:39:26;;;;;;;0.00;0.00;;;11.60;99.90;;;11.64;100.00;101430.41;4861941;29;20217;-83
2022/10/04 09:42:27;;;;;;;0.00;0.00;;;11.50;99.90;;;11.70;100.00;101424.34;4867095;29;20220;-82
2022/10/04 09:45:20;;;;;;;0.00;0.00;;;11.60;99.90;;;11.89;100.00;101426.56;4878301;29;20262;-83
2022/10/04 09:48:14;;;;;;;0.20;0.20;;;11.90;99.90;;;11.95;100.00;101434.63;4874390;29;20215;-83
2022/10/04 09:51:53;;;;;;;0.00;0.00;;;11.90;99.90;;;12.14;100.00;101439.44;4865565;29;20216;-83
2022/10/04 09:54:44;;;;;;;0.00;0.00;;;12.00;99.90;;;11.98;100.00;101409.94;4885940;29;20209;-81
2022/10/04 09:57:45;;;;;;;0.20;0.20;;;12.10;99.90;;;12.48;100.00;101442.69;4878829;29;20209;-84
2022/10/04 10:00:36;;;;;;;0.10;0.10;;;12.30;99.90;;;12.96;100.00;101457.63;4869428;29;20220;-82
2022/10/04 10:03:40;;;;;;;0.10;0.10;;;12.70;99.90;;;12.66;100.00;101404.94;4873645;29;20204;-82
2022/10/04 10:06:28;;;;;;;0.20;0.20;;;12.90;99.90;;;12.65;100.00;101409.34;4871275;29;20236;-83
2022/10/04 10:09:17;;;;;;;3.53;0.95;;;12.80;99.90;;;12.79;100.00;101413.13;4884863;29;20224;-82
2022/10/04 10:15:21;;;;;;;0.00;0.00;;;13.20;99.90;;;13.33;100.00;101427.25;4875956;29;20245;-82
2022/10/04 10:18:03;;;;;;;0.00;0.00;;;13.30;99.90;;;13.45;100.00;101443.34;4867473;29;20208;-80
2022/10/04 10:21:04;;;;;;;0.57;0.57;;;13.40;99.90;;;13.63;100.00;101437.38;4872340;29;20219;-82
2022/10/04 10:23:32;;;;;;;0.25;0.25;;;13.50;99.90;;;13.61;100.00;101413.44;4865380;29;20213;-82
2022/10/04 10:26:22;;;;;;;0.00;0.00;;;13.70;99.90;;;13.33;100.00;101380.31;4869431;29;20252;-81
2022/10/04 10:29:16;;;;;;;0.13;0.13;;;13.50;99.90;;;13.71;100.00;101422.41;4887127;29;20203;-80
2022/10/04 10:32:08;;;;;;;0.00;0.00;;;13.70;99.90;;;14.38;100.00;101463.97;4887998;29;20221;-80
2022/10/04 10:35:15;;;;;;;0.10;0.10;;;14.20;99.90;;;14.04;100.00;101403.28;4889984;29;20688;-81
2022/10/04 10:38:39;;;;;;;0.40;0.40;;;14.20;99.90;;;14.05;100.00;101382.03;4883893;29;20207;-80
2022/10/04 10:41:31;;;;;;;0.00;0.00;;;14.40;99.90;;;14.07;100.00;101398.00;4879405;29;20583;-81
2022/10/04 10:44:25;;;;;;;0.00;0.00;;;14.30;99.90;;;13.92;100.00;101371.25;4886745;29;20220;-80
2022/10/04 10:47:18;;;;;;;0.00;0.00;;;14.30;99.90;;;14.64;100.00;101448.28;4889215;29;20680;-82
2022/10/04 10:51:02;;;;;;;0.20;0.20;;;14.50;99.90;;;14.87;100.00;101424.47;4885308;29;20209;-80
2022/10/04 10:53:54;;;;;;;0.17;0.17;;;14.90;99.90;;;15.09;100.00;101435.28;4877744;29;20211;-80
2022/10/04 10:56:44;;;;;;;0.08;0.08;;;15.10;99.90;;;15.58;100.00;101439.13;4883701;29;20601;-81
2022/10/04 10:59:36;;;;;;;0.00;0.00;;;15.50;99.90;;;15.34;100.00;101375.91;4874552;29;20220;-82
2022/10/04 11:02:51;;;;;;;0.00;0.00;;;15.70;99.90;;;14.96;100.00;101389.03;4877588;29;20219;-83
2022/10/04 11:05:47;;;;;;;0.15;0.15;;;15.10;99.90;;;15.33;100.00;101380.34;4879880;29;20225;-82
2022/10/04 11:08:59;;;;;;;0.40;0.40;;;15.50;99.90;;;16.12;100.00;101441.13;4878940;29;20210;-82
2022/10/04 11:12:03;;;;;;;0.10;0.10;;;16.00;99.90;;;15.25;100.00;101298.59;4887890;29;20216;-82
2022/10/04 11:15:01;;;;;;;0.15;0.15;;;15.90;99.90;;;15.88;100.00;101367.28;4878855;29;20208;-83
2022/10/04 11:18:14;;;;;;;0.00;0.00;;;15.90;99.90;;;15.89;100.00;101350.38;4878374;29;20225;-84
2022/10/04 11:21:41;;;;;;;0.00;0.00;;;16.20;99.90;;;15.49;100.00;101298.66;4878253;29;20243;-84
2022/10/04 11:25:00;;;;;;;0.03;0.03;;;16.10;99.90;;;15.50;100.00;101292.44;4873721;29;20251;-83
2022/10/04 11:27:52;;;;;;;0.00;0.00;;;16.00;99.90;;;16.30;100.00;101387.78;4894490;29;20213;-83
2022/10/04 11:31:17;;;;;;;0.08;0.08;;;16.30;99.90;;;16.44;100.00;101328.16;4878084;29;20216;-82
2022/10/04 11:34:56;;;;;;;0.30;0.30;;;17.00;99.90;;;16.02;100.00;101316.59;4880415;29;20228;-83
2022/10/04 11:37:46;;;;;;;0.17;0.17;;;16.40;99.90;;;16.23;100.00;101347.75;4864790;29;20227;-83
2022/10/04 11:40:42;;;;;;;0.32;0.32;;;16.40;99.90;;;16.86;100.00;101392.25;4873246;29;20239;-82
2022/10/04 11:43:40;;;;;;;0.00;0.00;;;16.90;99.90;;;17.70;100.00;101425.94;4875988;29;20228;-84
2022/10/04 11:46:16;;;;;;;0.43;0.43;;;17.60;99.90;;;16.53;100.00;101227.56;4884830;29;20229;-84
2022/10/04 11:49:02;;;;;;;0.00;0.00;;;17.30;99.90;;;16.91;100.00;101310.34;4876600;29;20219;-84
2022/10/04 11:51:57;;;;;;;0.20;0.20;;;17.30;99.90;;;17.16;100.00;101307.56;4876957;29;20215;-84